sensor_id;sensor_type;location;lat;lon;timestamp;pressure;altitude;pressure_sealevel;temperature
71630;BMP280;59479;51.902;8.212;2023-07-22T00:01:50;100715.75;;;16.04
71630;BMP280;59479;51.902;8.212;2023-07-22T00:04:16;100713.41;;;15.97
71630;BMP280;59479;51.902;8.212;2023-07-22T00:06:42;100716.72;;;15.98
71630;BMP280;59479;51.902;8.212;2023-07-22T00:09:07;100723.41;;;16.01
71630;BMP280;59479;51.902;8.212;2023-07-22T00:11:32;100728.72;;;15.91
71630;BMP280;59479;51.902;8.212;2023-07-22T00:13:58;100721.94;;;15.91
71630;BMP280;59479;51.902;8.212;2023-07-22T00:16:24;100721.13;;;15.89
71630;BMP280;59479;51.902;8.212;2023-07-22T00:18:49;100719.47;;;15.88
71630;BMP280;59479;51.902;8.212;2023-07-22T00:21:15;100716.19;;;15.83
71630;BMP280;59479;51.902;8.212;2023-07-22T00:23:40;100711.97;;;15.84
71630;BMP280;59479;51.902;8.212;2023-07-22T00:26:05;100712.78;;;15.84
71630;BMP280;59479;51.902;8.212;2023-07-22T00:28:31;100720.47;;;15.81
71630;BMP280;59479;51.902;8.212;2023-07-22T00:30:56;100710.28;;;15.83
71630;BMP280;59479;51.902;8.212;2023-07-22T00:33:22;100716.25;;;15.80
71630;BMP280;59479;51.902;8.212;2023-07-22T00:35:49;100710.41;;;15.77
71630;BMP280;59479;51.902;8.212;2023-07-22T00:38:17;100715.41;;;15.81
71630;BMP280;59479;51.902;8.212;2023-07-22T00:40:44;100711.16;;;15.82
71630;BMP280;59479;51.902;8.212;2023-07-22T00:43:09;100710.44;;;15.75
71630;BMP280;59479;51.902;8.212;2023-07-22T00:45:34;100710.41;;;15.77
71630;BMP280;59479;51.902;8.212;2023-07-22T00:48:00;100704.47;;;15.78
71630;BMP280;59479;51.902;8.212;2023-07-22T00:50:25;100701.94;;;15.78
71630;BMP280;59479;51.902;8.212;2023-07-22T00:52:52;100697.00;;;15.72
71630;BMP280;59479;51.902;8.212;2023-07-22T00:55:17;100689.25;;;15.78
71630;BMP280;59479;51.902;8.212;2023-07-22T00:57:43;100699.31;;;15.82
71630;BMP280;59479;51.902;8.212;2023-07-22T01:00:09;100699.41;;;15.78
71630;BMP280;59479;51.902;8.212;2023-07-22T01:02:38;100693.44;;;15.80
71630;BMP280;59479;51.902;8.212;2023-07-22T01:05:03;100700.28;;;15.77
71630;BMP280;59479;51.902;8.212;2023-07-22T01:07:29;100684.28;;;15.75
71630;BMP280;59479;51.902;8.212;2023-07-22T01:09:57;100688.47;;;15.76
71630;BMP280;59479;51.902;8.212;2023-07-22T01:12:25;100696.13;;;15.73
71630;BMP280;59479;51.902;8.212;2023-07-22T01:14:52;100692.84;;;15.68
71630;BMP280;59479;51.902;8.212;2023-07-22T01:17:17;100681.84;;;15.69
71630;BMP280;59479;51.902;8.212;2023-07-22T01:19:44;100685.41;;;15.60
71630;BMP280;59479;51.902;8.212;2023-07-22T01:22:10;100682.03;;;15.60
71630;BMP280;59479;51.902;8.212;2023-07-22T01:24:36;100690.53;;;15.56
71630;BMP280;59479;51.902;8.212;2023-07-22T01:27:03;100683.69;;;15.61
71630;BMP280;59479;51.902;8.212;2023-07-22T01:29:28;100684.63;;;15.57
71630;BMP280;59479;51.902;8.212;2023-07-22T01:31:55;100690.53;;;15.57
71630;BMP280;59479;51.902;8.212;2023-07-22T01:34:21;100699.78;;;15.60
71630;BMP280;59479;51.902;8.212;2023-07-22T01:36:47;100690.53;;;15.56
71630;BMP280;59479;51.902;8.212;2023-07-22T01:39:13;100685.47;;;15.56
71630;BMP280;59479;51.902;8.212;2023-07-22T01:41:39;100683.88;;;15.52
71630;BMP280;59479;51.902;8.212;2023-07-22T01:44:04;100681.38;;;15.51
71630;BMP280;59479;51.902;8.212;2023-07-22T01:46:30;100681.28;;;15.55
71630;BMP280;59479;51.902;8.212;2023-07-22T01:48:55;100678.81;;;15.52
71630;BMP280;59479;51.902;8.212;2023-07-22T01:51:21;100678.81;;;15.52
71630;BMP280;59479;51.902;8.212;2023-07-22T01:53:46;100681.28;;;15.55
71630;BMP280;59479;51.902;8.212;2023-07-22T01:56:11;100685.47;;;15.56
71630;BMP280;59479;51.902;8.212;2023-07-22T01:58:37;100684.59;;;15.58
71630;BMP280;59479;51.902;8.212;2023-07-22T02:01:02;100689.75;;;15.54
71630;BMP280;59479;51.902;8.212;2023-07-22T02:03:27;100683.81;;;15.55
71630;BMP280;59479;51.902;8.212;2023-07-22T02:05:53;100685.47;;;15.56
71630;BMP280;59479;51.902;8.212;2023-07-22T02:08:18;100686.34;;;15.55
71630;BMP280;59479;51.902;8.212;2023-07-22T02:10:43;100680.41;;;15.56
71630;BMP280;59479;51.902;8.212;2023-07-22T02:13:08;100679.50;;;15.60
71630;BMP280;59479;51.902;8.212;2023-07-22T02:15:34;100679.47;;;15.61
71630;BMP280;59479;51.902;8.212;2023-07-22T02:17:59;100682.88;;;15.60
71630;BMP280;59479;51.902;8.212;2023-07-22T02:20:25;100687.09;;;15.60
71630;BMP280;59479;51.902;8.212;2023-07-22T02:22:54;100683.69;;;15.61
71630;BMP280;59479;51.902;8.212;2023-07-22T02:25:19;100681.09;;;15.64
71630;BMP280;59479;51.902;8.212;2023-07-22T02:27:44;100677.75;;;15.63
71630;BMP280;59479;51.902;8.212;2023-07-22T02:30:10;100686.19;;;15.62
71630;BMP280;59479;51.902;8.212;2023-07-22T02:32:40;100697.09;;;15.66
71630;BMP280;59479;51.902;8.212;2023-07-22T02:35:09;100690.44;;;15.62
71630;BMP280;59479;51.902;8.212;2023-07-22T02:37:38;100685.34;;;15.63
71630;BMP280;59479;51.902;8.212;2023-07-22T02:40:04;100687.00;;;15.64
71630;BMP280;59479;51.902;8.212;2023-07-22T02:42:39;100680.31;;;15.62
71630;BMP280;59479;51.902;8.212;2023-07-22T02:45:05;100671.91;;;15.60
71630;BMP280;59479;51.902;8.212;2023-07-22T02:47:33;100681.19;;;15.59
71630;BMP280;59479;51.902;8.212;2023-07-22T02:50:02;100683.78;;;15.58
71630;BMP280;59479;51.902;8.212;2023-07-22T02:52:28;100679.50;;;15.60
71630;BMP280;59479;51.902;8.212;2023-07-22T02:55:26;100685.44;;;15.59
71630;BMP280;59479;51.902;8.212;2023-07-22T02:57:52;100680.34;;;15.60
71630;BMP280;59479;51.902;8.212;2023-07-22T03:00:19;100680.28;;;15.63
71630;BMP280;59479;51.902;8.212;2023-07-22T03:02:54;100676.88;;;15.64
71630;BMP280;59479;51.902;8.212;2023-07-22T03:05:29;100682.00;;;15.63
71630;BMP280;59479;51.902;8.212;2023-07-22T03:07:55;100682.84;;;15.62
71630;BMP280;59479;51.902;8.212;2023-07-22T03:10:20;100681.19;;;15.59
71630;BMP280;59479;51.902;8.212;2023-07-22T03:12:47;100687.06;;;15.63
71630;BMP280;59479;51.902;8.212;2023-07-22T03:15:12;100692.13;;;15.63
71630;BMP280;59479;51.902;8.212;2023-07-22T03:17:39;100684.47;;;15.64
71630;BMP280;59479;51.902;8.212;2023-07-22T03:20:07;100689.53;;;15.64
71630;BMP280;59479;51.902;8.212;2023-07-22T03:22:40;100682.84;;;15.62
71630;BMP280;59479;51.902;8.212;2023-07-22T03:25:08;100687.84;;;15.66
71630;BMP280;59479;51.902;8.212;2023-07-22T03:27:35;100693.78;;;15.64
71630;BMP280;59479;51.902;8.212;2023-07-22T03:30:02;100693.78;;;15.64
71630;BMP280;59479;51.902;8.212;2023-07-22T03:32:28;100691.19;;;15.67
71630;BMP280;59479;51.902;8.212;2023-07-22T03:34:53;100698.84;;;15.64
71630;BMP280;59479;51.902;8.212;2023-07-22T03:37:18;100702.19;;;15.66
71630;BMP280;59479;51.902;8.212;2023-07-22T03:39:45;100696.28;;;15.65
71630;BMP280;59479;51.902;8.212;2023-07-22T03:42:10;100692.94;;;15.63
71630;BMP280;59479;51.902;8.212;2023-07-22T03:44:36;100692.94;;;15.63
71630;BMP280;59479;51.902;8.212;2023-07-22T03:47:01;100696.28;;;15.65
71630;BMP280;59479;51.902;8.212;2023-07-22T03:49:26;100694.59;;;15.64
71630;BMP280;59479;51.902;8.212;2023-07-22T03:51:52;100700.53;;;15.65
71630;BMP280;59479;51.902;8.212;2023-07-22T03:54:17;100705.59;;;15.65
71630;BMP280;59479;51.902;8.212;2023-07-22T03:56:42;100698.00;;;15.63
71630;BMP280;59479;51.902;8.212;2023-07-22T03:59:07;100709.75;;;15.67
71630;BMP280;59479;51.902;8.212;2023-07-22T04:01:33;100697.13;;;15.64
71630;BMP280;59479;51.902;8.212;2023-07-22T04:03:58;100692.03;;;15.66
71630;BMP280;59479;51.902;8.212;2023-07-22T04:06:23;100698.84;;;15.64
71630;BMP280;59479;51.902;8.212;2023-07-22T04:08:49;100701.31;;;15.67
71630;BMP280;59479;51.902;8.212;2023-07-22T04:11:14;100703.03;;;15.66
71630;BMP280;59479;51.902;8.212;2023-07-22T04:13:40;100705.50;;;15.68
71630;BMP280;59479;51.902;8.212;2023-07-22T04:16:05;100699.63;;;15.66
71630;BMP280;59479;51.902;8.212;2023-07-22T04:18:31;100708.91;;;15.68
71630;BMP280;59479;51.902;8.212;2023-07-22T04:21:00;100707.25;;;15.66
71630;BMP280;59479;51.902;8.212;2023-07-22T04:23:25;100709.75;;;15.67
71630;BMP280;59479;51.902;8.212;2023-07-22T04:25:51;100713.09;;;15.68
71630;BMP280;59479;51.902;8.212;2023-07-22T04:28:17;100716.44;;;15.71
71630;BMP280;59479;51.902;8.212;2023-07-22T04:30:42;100715.66;;;15.68
71630;BMP280;59479;51.902;8.212;2023-07-22T04:33:07;100718.94;;;15.73
71630;BMP280;59479;51.902;8.212;2023-07-22T04:35:40;100722.31;;;15.73
71630;BMP280;59479;51.902;8.212;2023-07-22T04:38:06;100716.44;;;15.71
71630;BMP280;59479;51.902;8.212;2023-07-22T04:40:31;100722.34;;;15.72
71630;BMP280;59479;51.902;8.212;2023-07-22T04:42:57;100723.97;;;15.74
71630;BMP280;59479;51.902;8.212;2023-07-22T04:45:22;100721.50;;;15.71
71630;BMP280;59479;51.902;8.212;2023-07-22T04:47:52;100722.28;;;15.75
71630;BMP280;59479;51.902;8.212;2023-07-22T04:50:17;100726.47;;;15.76
71630;BMP280;59479;51.902;8.212;2023-07-22T04:52:45;100718.06;;;15.74
71630;BMP280;59479;51.902;8.212;2023-07-22T04:55:11;100718.88;;;15.76
71630;BMP280;59479;51.902;8.212;2023-07-22T04:57:38;100720.53;;;15.78
71630;BMP280;59479;51.902;8.212;2023-07-22T05:00:05;100728.94;;;15.80
71630;BMP280;59479;51.902;8.212;2023-07-22T05:02:33;100724.66;;;15.82
71630;BMP280;59479;51.902;8.212;2023-07-22T05:04:59;100724.72;;;15.79
71630;BMP280;59479;51.902;8.212;2023-07-22T05:07:24;100725.53;;;15.81
71630;BMP280;59479;51.902;8.212;2023-07-22T05:09:50;100724.66;;;15.82
71630;BMP280;59479;51.902;8.212;2023-07-22T05:12:16;100733.97;;;15.82
71630;BMP280;59479;51.902;8.212;2023-07-22T05:14:42;100726.22;;;15.88
71630;BMP280;59479;51.902;8.212;2023-07-22T05:17:07;100727.13;;;15.87
71630;BMP280;59479;51.902;8.212;2023-07-22T05:19:32;100737.25;;;15.87
71630;BMP280;59479;51.902;8.212;2023-07-22T05:21:58;100734.75;;;15.85
71630;BMP280;59479;51.902;8.212;2023-07-22T05:24:23;100734.72;;;15.87
71630;BMP280;59479;51.902;8.212;2023-07-22T05:26:48;100734.66;;;15.90
71630;BMP280;59479;51.902;8.212;2023-07-22T05:29:14;100738.03;;;15.90
71630;BMP280;59479;51.902;8.212;2023-07-22T05:31:42;100734.66;;;15.90
71630;BMP280;59479;51.902;8.212;2023-07-22T05:34:07;100731.22;;;15.92
71630;BMP280;59479;51.902;8.212;2023-07-22T05:36:32;100733.72;;;15.94
71630;BMP280;59479;51.902;8.212;2023-07-22T05:38:58;100736.22;;;15.95
71630;BMP280;59479;51.902;8.212;2023-07-22T05:41:23;100739.59;;;15.96
71630;BMP280;59479;51.902;8.212;2023-07-22T05:43:48;100738.00;;;15.92
71630;BMP280;59479;51.902;8.212;2023-07-22T05:46:14;100739.63;;;15.94
71630;BMP280;59479;51.902;8.212;2023-07-22T05:48:39;100743.81;;;15.97
71630;BMP280;59479;51.902;8.212;2023-07-22T05:51:04;100740.38;;;15.97
71630;BMP280;59479;51.902;8.212;2023-07-22T05:53:31;100747.91;;;16.02
71630;BMP280;59479;51.902;8.212;2023-07-22T05:55:57;100747.09;;;16.01
71630;BMP280;59479;51.902;8.212;2023-07-22T05:58:24;100738.56;;;16.05
71630;BMP280;59479;51.902;8.212;2023-07-22T06:00:50;100733.41;;;16.08
71630;BMP280;59479;51.902;8.212;2023-07-22T06:03:17;100735.03;;;16.12
71630;BMP280;59479;51.902;8.212;2023-07-22T06:05:42;100731.59;;;16.15
71630;BMP280;59479;51.902;8.212;2023-07-22T06:08:08;100739.09;;;16.19
71630;BMP280;59479;51.902;8.212;2023-07-22T06:10:33;100735.66;;;16.25
71630;BMP280;59479;51.902;8.212;2023-07-22T06:12:59;100733.00;;;16.29
71630;BMP280;59479;51.902;8.212;2023-07-22T06:15:24;100742.31;;;16.29
71630;BMP280;59479;51.902;8.212;2023-07-22T06:17:49;100744.63;;;16.39
71630;BMP280;59479;51.902;8.212;2023-07-22T06:20:15;100746.31;;;16.39
71630;BMP280;59479;51.902;8.212;2023-07-22T06:22:40;100740.34;;;16.41
71630;BMP280;59479;51.902;8.212;2023-07-22T06:25:06;100742.00;;;16.42
71630;BMP280;59479;51.902;8.212;2023-07-22T06:27:32;100740.31;;;16.42
71630;BMP280;59479;51.902;8.212;2023-07-22T06:29:57;100737.69;;;16.47
71630;BMP280;59479;51.902;8.212;2023-07-22T06:32:23;100734.97;;;16.54
71630;BMP280;59479;51.902;8.212;2023-07-22T06:34:48;100738.31;;;16.56
71630;BMP280;59479;51.902;8.212;2023-07-22T06:37:14;100739.16;;;16.57
71630;BMP280;59479;51.902;8.212;2023-07-22T06:39:39;100745.81;;;16.61
71630;BMP280;59479;51.902;8.212;2023-07-22T06:42:04;100738.13;;;16.64
71630;BMP280;59479;51.902;8.212;2023-07-22T06:44:30;100738.88;;;16.69
71630;BMP280;59479;51.902;8.212;2023-07-22T06:46:55;100734.66;;;16.68
71630;BMP280;59479;51.902;8.212;2023-07-22T06:49:20;100741.28;;;16.75
71630;BMP280;59479;51.902;8.212;2023-07-22T06:51:46;100734.44;;;16.77
71630;BMP280;59479;51.902;8.212;2023-07-22T06:54:11;100742.72;;;16.84
71630;BMP280;59479;51.902;8.212;2023-07-22T06:56:36;100740.09;;;16.87
71630;BMP280;59479;51.902;8.212;2023-07-22T06:59:02;100735.91;;;16.86
71630;BMP280;59479;51.902;8.212;2023-07-22T07:01:28;100739.13;;;16.93
71630;BMP280;59479;51.902;8.212;2023-07-22T07:03:53;100742.47;;;16.95
71630;BMP280;59479;51.902;8.212;2023-07-22T07:06:18;100740.69;;;16.98
71630;BMP280;59479;51.902;8.212;2023-07-22T07:08:43;100743.06;;;17.04
71630;BMP280;59479;51.902;8.212;2023-07-22T07:11:09;100740.38;;;17.10
71630;BMP280;59479;51.902;8.212;2023-07-22T07:13:34;100740.28;;;17.15
71630;BMP280;59479;51.902;8.212;2023-07-22T07:16:23;100728.22;;;17.24
71630;BMP280;59479;51.902;8.212;2023-07-22T07:18:49;100734.75;;;17.32
71630;BMP280;59479;51.902;8.212;2023-07-22T07:21:14;100731.22;;;17.39
71630;BMP280;59479;51.902;8.212;2023-07-22T07:23:39;100737.88;;;17.43
71630;BMP280;59479;51.902;8.212;2023-07-22T07:26:05;100737.84;;;17.45
71630;BMP280;59479;51.902;8.212;2023-07-22T07:28:30;100738.38;;;17.56
71630;BMP280;59479;51.902;8.212;2023-07-22T07:30:55;100740.75;;;17.62
71630;BMP280;59479;51.902;8.212;2023-07-22T07:33:21;100743.97;;;17.68
71630;BMP280;59479;51.902;8.212;2023-07-22T07:35:46;100740.41;;;17.75
71630;BMP280;59479;51.902;8.212;2023-07-22T07:38:12;100743.66;;;17.80
71630;BMP280;59479;51.902;8.212;2023-07-22T07:40:38;100742.69;;;17.84
71630;BMP280;59479;51.902;8.212;2023-07-22T07:43:03;100735.09;;;17.82
71630;BMP280;59479;51.902;8.212;2023-07-22T07:45:28;100739.91;;;17.93
71630;BMP280;59479;51.902;8.212;2023-07-22T07:47:54;100739.91;;;17.93
71630;BMP280;59479;51.902;8.212;2023-07-22T07:50:19;100728.72;;;17.98
71630;BMP280;59479;51.902;8.212;2023-07-22T07:52:45;100733.56;;;18.06
71630;BMP280;59479;51.902;8.212;2023-07-22T07:55:10;100737.59;;;18.14
71630;BMP280;59479;51.902;8.212;2023-07-22T07:57:36;100740.81;;;18.20
71630;BMP280;59479;51.902;8.212;2023-07-22T08:00:02;100729.75;;;18.21
71630;BMP280;59479;51.902;8.212;2023-07-22T08:02:28;100739.63;;;18.32
71630;BMP280;59479;51.902;8.212;2023-07-22T08:04:53;100735.34;;;18.32
71630;BMP280;59479;51.902;8.212;2023-07-22T08:07:18;100736.97;;;18.35
71630;BMP280;59479;51.902;8.212;2023-07-22T08:09:46;100738.50;;;18.40
71630;BMP280;59479;51.902;8.212;2023-07-22T08:12:14;100739.06;;;18.50
71630;BMP280;59479;51.902;8.212;2023-07-22T08:14:39;100731.19;;;18.57
71630;BMP280;59479;51.902;8.212;2023-07-22T08:17:07;100730.84;;;18.67
71630;BMP280;59479;51.902;8.212;2023-07-22T08:19:33;100731.47;;;18.75
71630;BMP280;59479;51.902;8.212;2023-07-22T08:21:58;100732.94;;;18.82
71630;BMP280;59479;51.902;8.212;2023-07-22T08:24:23;100738.56;;;18.92
71630;BMP280;59479;51.902;8.212;2023-07-22T08:26:49;100732.41;;;18.98
71630;BMP280;59479;51.902;8.212;2023-07-22T08:29:14;100737.47;;;19.00
71630;BMP280;59479;51.902;8.212;2023-07-22T08:31:39;100740.75;;;19.03
71630;BMP280;59479;51.902;8.212;2023-07-22T08:34:05;100742.38;;;19.06
71630;BMP280;59479;51.902;8.212;2023-07-22T08:36:31;100743.00;;;19.12
71630;BMP280;59479;51.902;8.212;2023-07-22T08:38:59;100737.66;;;19.20
71630;BMP280;59479;51.902;8.212;2023-07-22T08:41:25;100734.06;;;19.25
71630;BMP280;59479;51.902;8.212;2023-07-22T08:43:51;100741.63;;;19.28
71630;BMP280;59479;51.902;8.212;2023-07-22T08:46:19;100746.50;;;19.34
71630;BMP280;59479;51.902;8.212;2023-07-22T08:48:47;100736.06;;;19.41
71630;BMP280;59479;51.902;8.212;2023-07-22T08:51:16;100742.66;;;19.47
71630;BMP280;59479;51.902;8.212;2023-07-22T08:53:43;100739.69;;;19.59
71630;BMP280;59479;51.902;8.212;2023-07-22T08:56:09;100745.63;;;19.59
71630;BMP280;59479;51.902;8.212;2023-07-22T08:58:35;100747.09;;;19.66
71630;BMP280;59479;51.902;8.212;2023-07-22T09:01:02;100741.56;;;19.78
71630;BMP280;59479;51.902;8.212;2023-07-22T09:03:27;100743.09;;;19.82
71630;BMP280;59479;51.902;8.212;2023-07-22T09:05:54;100739.25;;;19.95
71630;BMP280;59479;51.902;8.212;2023-07-22T09:08:22;100742.38;;;20.03
71630;BMP280;59479;51.902;8.212;2023-07-22T09:10:48;100732.84;;;20.08
71630;BMP280;59479;51.902;8.212;2023-07-22T09:13:14;100737.28;;;20.03
71630;BMP280;59479;51.902;8.212;2023-07-22T09:15:40;100733.59;;;20.10
71630;BMP280;59479;51.902;8.212;2023-07-22T09:18:06;100730.16;;;20.11
71630;BMP280;59479;51.902;8.212;2023-07-22T09:20:32;100727.22;;;20.21
71630;BMP280;59479;51.902;8.212;2023-07-22T09:22:59;100731.16;;;20.29
71630;BMP280;59479;51.902;8.212;2023-07-22T09:25:26;100733.22;;;20.41
71630;BMP280;59479;51.902;8.212;2023-07-22T09:27:54;100720.00;;;20.53
71630;BMP280;59479;51.902;8.212;2023-07-22T09:30:30;100721.34;;;20.62
71630;BMP280;59479;51.902;8.212;2023-07-22T09:32:58;100718.56;;;20.69
71630;BMP280;59479;51.902;8.212;2023-07-22T09:35:32;100716.69;;;20.72
71630;BMP280;59479;51.902;8.212;2023-07-22T09:38:08;100720.59;;;20.60
71630;BMP280;59479;51.902;8.212;2023-07-22T09:40:33;100713.34;;;20.70
71630;BMP280;59479;51.902;8.212;2023-07-22T09:43:01;100712.66;;;20.67
71630;BMP280;59479;51.902;8.212;2023-07-22T09:45:29;100717.91;;;20.41
71630;BMP280;59479;51.902;8.212;2023-07-22T09:47:55;100710.25;;;20.41
71630;BMP280;59479;51.902;8.212;2023-07-22T09:50:23;100704.78;;;20.50
71630;BMP280;59479;51.902;8.212;2023-07-22T09:52:53;100704.00;;;20.48
71630;BMP280;59479;51.902;8.212;2023-07-22T09:55:21;100712.97;;;20.37
71630;BMP280;59479;51.902;8.212;2023-07-22T09:57:52;100708.78;;;20.36
71630;BMP280;59479;51.902;8.212;2023-07-22T10:00:18;100706.63;;;20.47
71630;BMP280;59479;51.902;8.212;2023-07-22T10:02:48;100717.41;;;20.32
71630;BMP280;59479;51.902;8.212;2023-07-22T10:05:16;100706.59;;;20.25
71630;BMP280;59479;51.902;8.212;2023-07-22T10:07:50;100708.50;;;20.21
71630;BMP280;59479;51.902;8.212;2023-07-22T10:10:23;100704.41;;;20.17
71630;BMP280;59479;51.902;8.212;2023-07-22T10:12:49;100696.41;;;20.25
71630;BMP280;59479;51.902;8.212;2023-07-22T10:15:15;100695.22;;;20.34
71630;BMP280;59479;51.902;8.212;2023-07-22T10:17:43;100682.00;;;20.67
71630;BMP280;59479;51.902;8.212;2023-07-22T10:20:11;100692.09;;;20.70
71630;BMP280;59479;51.902;8.212;2023-07-22T10:22:46;100684.78;;;21.02
71630;BMP280;59479;51.902;8.212;2023-07-22T10:25:17;100684.88;;;21.01
71630;BMP280;59479;51.902;8.212;2023-07-22T10:27:43;100684.34;;;21.12
71630;BMP280;59479;51.902;8.212;2023-07-22T10:30:11;100684.84;;;21.20
71630;BMP280;59479;51.902;8.212;2023-07-22T10:32:47;100677.28;;;21.19
71630;BMP280;59479;51.902;8.212;2023-07-22T10:35:53;100680.53;;;21.22
71630;BMP280;59479;51.902;8.212;2023-07-22T10:38:33;100674.53;;;21.42
71630;BMP280;59479;51.902;8.212;2023-07-22T10:40:59;100671.47;;;21.34
71630;BMP280;59479;51.902;8.212;2023-07-22T10:44:17;100671.88;;;21.25
71630;BMP280;59479;51.902;8.212;2023-07-22T10:47:02;100679.09;;;21.15
71630;BMP280;59479;51.902;8.212;2023-07-22T10:49:48;100669.03;;;21.12
71630;BMP280;59479;51.902;8.212;2023-07-22T10:52:14;100657.88;;;21.33
71630;BMP280;59479;51.902;8.212;2023-07-22T10:54:39;100673.84;;;21.38
71630;BMP280;59479;51.902;8.212;2023-07-22T10:59:47;100662.88;;;21.36
71630;BMP280;59479;51.902;8.212;2023-07-22T11:02:28;100664.97;;;21.27
71630;BMP280;59479;51.902;8.212;2023-07-22T11:05:02;100661.47;;;21.29
71630;BMP280;59479;51.902;8.212;2023-07-22T11:07:45;100657.00;;;21.14
71630;BMP280;59479;51.902;8.212;2023-07-22T11:10:17;100657.59;;;21.21
71630;BMP280;59479;51.902;8.212;2023-07-22T11:12:44;100649.63;;;21.27
71630;BMP280;59479;51.902;8.212;2023-07-22T11:15:14;100655.38;;;21.32
71630;BMP280;59479;51.902;8.212;2023-07-22T11:17:43;100647.22;;;21.44
71630;BMP280;59479;51.902;8.212;2023-07-22T11:20:11;100638.66;;;21.45
71630;BMP280;59479;51.902;8.212;2023-07-22T11:22:45;100645.09;;;21.33
71630;BMP280;59479;51.902;8.212;2023-07-22T11:25:36;100635.22;;;21.26
71630;BMP280;59479;51.902;8.212;2023-07-22T11:28:02;100641.63;;;21.16
71630;BMP280;59479;51.902;8.212;2023-07-22T11:30:37;100638.13;;;21.17
71630;BMP280;59479;51.902;8.212;2023-07-22T11:33:25;100645.63;;;21.21
71630;BMP280;59479;51.902;8.212;2023-07-22T11:36:11;100630.88;;;21.08
71630;BMP280;59479;51.902;8.212;2023-07-22T11:38:46;100633.72;;;21.20
71630;BMP280;59479;51.902;8.212;2023-07-22T11:41:11;100635.06;;;21.29
71630;BMP280;59479;51.902;8.212;2023-07-22T11:43:37;100628.44;;;21.45
71630;BMP280;59479;51.902;8.212;2023-07-22T11:46:05;100622.44;;;21.46
71630;BMP280;59479;51.902;8.212;2023-07-22T11:48:31;100625.25;;;21.58
71630;BMP280;59479;51.902;8.212;2023-07-22T11:51:00;100638.00;;;21.20
71630;BMP280;59479;51.902;8.212;2023-07-22T11:53:28;100617.72;;;21.35
71630;BMP280;59479;51.902;8.212;2023-07-22T11:55:55;100630.38;;;21.58
71630;BMP280;59479;51.902;8.212;2023-07-22T11:58:27;100625.25;;;21.58
71630;BMP280;59479;51.902;8.212;2023-07-22T12:01:07;100625.06;;;21.62
71630;BMP280;59479;51.902;8.212;2023-07-22T12:03:35;100615.16;;;21.73
71630;BMP280;59479;51.902;8.212;2023-07-22T12:06:05;100621.47;;;21.66
71630;BMP280;59479;51.902;8.212;2023-07-22T12:08:31;100614.53;;;21.68
71630;BMP280;59479;51.902;8.212;2023-07-22T12:10:58;100616.69;;;21.95
71630;BMP280;59479;51.902;8.212;2023-07-22T12:13:23;100604.63;;;22.16
71630;BMP280;59479;51.902;8.212;2023-07-22T12:16:05;100599.56;;;22.33
71630;BMP280;59479;51.902;8.212;2023-07-22T12:18:47;100610.34;;;22.56
71630;BMP280;59479;51.902;8.212;2023-07-22T12:21:13;100606.25;;;22.69
71630;BMP280;59479;51.902;8.212;2023-07-22T12:23:39;100617.28;;;22.54
71630;BMP280;59479;51.902;8.212;2023-07-22T12:26:05;100604.53;;;22.69
71630;BMP280;59479;51.902;8.212;2023-07-22T12:28:31;100594.50;;;22.81
71630;BMP280;59479;51.902;8.212;2023-07-22T12:30:56;100597.34;;;22.94
71630;BMP280;59479;51.902;8.212;2023-07-22T12:33:23;100596.03;;;23.02
71630;BMP280;59479;51.902;8.212;2023-07-22T12:35:49;100591.50;;;23.07
71630;BMP280;59479;51.902;8.212;2023-07-22T12:38:15;100594.38;;;23.01
71630;BMP280;59479;51.902;8.212;2023-07-22T12:40:41;100605.13;;;23.08
71630;BMP280;59479;51.902;8.212;2023-07-22T12:43:06;100595.25;;;23.17
71630;BMP280;59479;51.902;8.212;2023-07-22T12:45:33;100587.63;;;23.16
71630;BMP280;59479;51.902;8.212;2023-07-22T12:47:58;100586.25;;;23.25
71630;BMP280;59479;51.902;8.212;2023-07-22T12:50:23;100591.03;;;23.31
71630;BMP280;59479;51.902;8.212;2023-07-22T12:52:49;100580.47;;;23.37
71630;BMP280;59479;51.902;8.212;2023-07-22T12:55:14;100579.84;;;23.49
71630;BMP280;59479;51.902;8.212;2023-07-22T12:57:39;100584.38;;;23.44
71630;BMP280;59479;51.902;8.212;2023-07-22T13:00:05;100581.22;;;23.39
71630;BMP280;59479;51.902;8.212;2023-07-22T13:02:34;100584.81;;;23.52
71630;BMP280;59479;51.902;8.212;2023-07-22T13:04:59;100572.97;;;23.50
71630;BMP280;59479;51.902;8.212;2023-07-22T13:07:25;100578.75;;;23.53
71630;BMP280;59479;51.902;8.212;2023-07-22T13:09:53;100571.22;;;23.50
71630;BMP280;59479;51.902;8.212;2023-07-22T13:12:21;100571.97;;;23.52
71630;BMP280;59479;51.902;8.212;2023-07-22T13:14:47;100569.00;;;23.60
71630;BMP280;59479;51.902;8.212;2023-07-22T13:17:12;100562.56;;;23.68
71630;BMP280;59479;51.902;8.212;2023-07-22T13:19:37;100549.16;;;23.63
71630;BMP280;59479;51.902;8.212;2023-07-22T13:22:03;100562.72;;;23.65
71630;BMP280;59479;51.902;8.212;2023-07-22T13:24:29;100554.84;;;23.53
71630;BMP280;59479;51.902;8.212;2023-07-22T13:26:54;100562.03;;;23.46
71630;BMP280;59479;51.902;8.212;2023-07-22T13:29:19;100556.94;;;23.62
71630;BMP280;59479;51.902;8.212;2023-07-22T13:31:45;100552.84;;;23.58
71630;BMP280;59479;51.902;8.212;2023-07-22T13:34:10;100563.72;;;23.63
71630;BMP280;59479;51.902;8.212;2023-07-22T13:36:36;100540.94;;;23.57
71630;BMP280;59479;51.902;8.212;2023-07-22T13:39:01;100534.31;;;23.53
71630;BMP280;59479;51.902;8.212;2023-07-22T13:41:27;100541.84;;;23.56
71630;BMP280;59479;51.902;8.212;2023-07-22T13:43:52;100541.84;;;23.56
71630;BMP280;59479;51.902;8.212;2023-07-22T13:46:17;100533.06;;;23.60
71630;BMP280;59479;51.902;8.212;2023-07-22T13:48:42;100534.69;;;23.62
71630;BMP280;59479;51.902;8.212;2023-07-22T13:51:08;100535.00;;;23.71
71630;BMP280;59479;51.902;8.212;2023-07-22T13:53:34;100528.03;;;23.73
71630;BMP280;59479;51.902;8.212;2023-07-22T13:55:59;100537.56;;;23.71
71630;BMP280;59479;51.902;8.212;2023-07-22T13:58:24;100530.53;;;23.75
71630;BMP280;59479;51.902;8.212;2023-07-22T14:00:50;100537.16;;;23.63